createdAt,value
2023-03-03T00:01:34.373Z,-2.25
2023-03-03T00:04:02.958Z,-2.26
2023-03-03T00:06:31.448Z,-2.27
2023-03-03T00:08:59.941Z,-2.28
2023-03-03T00:11:28.321Z,-2.26
2023-03-03T00:13:57.380Z,-2.24
2023-03-03T00:16:28.265Z,-2.23
2023-03-03T00:18:57.149Z,-2.20
2023-03-03T00:21:29.880Z,-2.18
2023-03-03T00:24:17.155Z,-2.13
2023-03-03T00:26:47.100Z,-2.10
2023-03-03T00:29:36.541Z,-2.10
2023-03-03T00:32:16.877Z,-2.08
2023-03-03T00:34:46.251Z,-2.07
2023-03-03T00:37:33.092Z,-2.03
2023-03-03T00:40:18.687Z,-2.02
2023-03-03T00:42:52.041Z,-2.04
2023-03-03T00:45:48.364Z,-2.07
2023-03-03T00:48:16.990Z,-2.08
2023-03-03T00:50:45.706Z,-2.08
2023-03-03T00:53:17.497Z,-2.07
2023-03-03T00:55:48.404Z,-2.05
2023-03-03T00:58:22.045Z,-2.05
2023-03-03T01:00:53.490Z,-2.05
2023-03-03T01:03:26.593Z,-2.08
2023-03-03T01:05:55.745Z,-2.11
2023-03-03T01:08:24.434Z,-2.14
2023-03-03T01:10:56.315Z,-2.18
2023-03-03T01:13:28.781Z,-2.24
2023-03-03T01:15:58.257Z,-2.30
2023-03-03T01:18:27.398Z,-2.37
2023-03-03T01:20:56.178Z,-2.45
2023-03-03T01:23:24.671Z,-2.53
2023-03-03T01:25:52.952Z,-2.58
2023-03-03T01:28:21.473Z,-2.61
2023-03-03T01:30:49.712Z,-2.66
2023-03-03T01:33:18.947Z,-2.71
2023-03-03T01:35:48.194Z,-2.77
2023-03-03T01:38:17.015Z,-2.82
2023-03-03T01:40:53.893Z,-2.88
2023-03-03T01:43:22.963Z,-2.92
2023-03-03T01:45:52.106Z,-2.96
2023-03-03T01:48:31.637Z,-3.00
2023-03-03T01:51:02.681Z,-3.05
2023-03-03T01:53:39.746Z,-3.09
2023-03-03T01:56:09.986Z,-3.13
2023-03-03T01:58:59.048Z,-3.17
2023-03-03T02:01:29.871Z,-3.21
2023-03-03T02:03:59.461Z,-3.26
2023-03-03T02:06:35.565Z,-3.29
2023-03-03T02:09:18.266Z,-3.34
2023-03-03T02:11:51.113Z,-3.38
2023-03-03T02:14:20.048Z,-3.38
2023-03-03T02:16:48.463Z,-3.39
2023-03-03T02:19:43.081Z,-3.39
2023-03-03T02:22:14.896Z,-3.39
2023-03-03T02:24:50.024Z,-3.40
2023-03-03T02:27:18.520Z,-3.41
2023-03-03T02:29:47.510Z,-3.41
2023-03-03T02:32:16.079Z,-3.41
2023-03-03T02:34:51.038Z,-3.39
2023-03-03T02:37:20.264Z,-3.40
2023-03-03T02:39:48.527Z,-3.39
2023-03-03T02:42:22.141Z,-3.37
2023-03-03T02:44:54.519Z,-3.36
2023-03-03T02:47:22.890Z,-3.33
2023-03-03T02:49:51.794Z,-3.30
2023-03-03T02:52:20.063Z,-3.22
2023-03-03T02:54:48.866Z,-3.16
2023-03-03T02:57:17.237Z,-3.10
2023-03-03T02:59:45.617Z,-3.05
2023-03-03T03:02:16.071Z,-3.06
2023-03-03T03:04:44.565Z,-3.08
2023-03-03T03:07:16.942Z,-3.08
2023-03-03T03:09:45.400Z,-3.06
2023-03-03T03:12:16.163Z,-3.05
2023-03-03T03:14:45.258Z,-3.02
2023-03-03T03:17:13.622Z,-2.98
2023-03-03T03:19:42.213Z,-2.99
2023-03-03T03:22:10.388Z,-3.04
2023-03-03T03:24:38.778Z,-3.09
2023-03-03T03:27:09.009Z,-3.15
2023-03-03T03:29:37.593Z,-3.22
2023-03-03T03:32:06.433Z,-3.30
2023-03-03T03:34:34.876Z,-3.34
2023-03-03T03:37:03.777Z,-3.37
2023-03-03T03:39:33.491Z,-3.41
2023-03-03T03:42:03.403Z,-3.46
2023-03-03T03:44:32.604Z,-3.53
2023-03-03T03:47:01.604Z,-3.59
2023-03-03T03:49:31.112Z,-3.65
2023-03-03T03:51:59.700Z,-3.70
2023-03-03T03:54:30.341Z,-3.73
2023-03-03T03:56:59.546Z,-3.78
2023-03-03T03:59:28.951Z,-3.81
2023-03-03T04:01:57.349Z,-3.84
2023-03-03T04:04:26.250Z,-3.87
2023-03-03T04:06:55.237Z,-3.92
2023-03-03T04:09:23.728Z,-3.94
2023-03-03T04:11:52.011Z,-3.95
2023-03-03T04:14:20.390Z,-3.97
2023-03-03T04:16:48.679Z,-3.99
2023-03-03T04:19:18.700Z,-4.01
2023-03-03T04:21:47.118Z,-4.04
2023-03-03T04:24:15.770Z,-4.07
2023-03-03T04:26:44.669Z,-4.09
2023-03-03T04:29:13.135Z,-4.09
2023-03-03T04:31:42.664Z,-4.11
2023-03-03T04:34:11.251Z,-4.12
2023-03-03T04:36:40.148Z,-4.12
2023-03-03T04:39:08.637Z,-4.13
2023-03-03T04:41:37.447Z,-4.14
2023-03-03T04:44:06.120Z,-4.18
2023-03-03T04:46:35.778Z,-4.21
2023-03-03T04:49:09.345Z,-4.22
2023-03-03T04:51:38.644Z,-4.23
2023-03-03T04:54:07.542Z,-4.24
2023-03-03T04:56:36.330Z,-4.25
2023-03-03T04:59:05.435Z,-4.25
2023-03-03T05:01:34.444Z,-4.26
2023-03-03T05:04:03.458Z,-4.24
2023-03-03T05:06:31.708Z,-4.21
2023-03-03T05:08:59.888Z,-4.17
2023-03-03T05:11:28.371Z,-4.12
2023-03-03T05:13:56.551Z,-4.04
2023-03-03T05:16:25.539Z,-3.98
2023-03-03T05:18:53.733Z,-3.91
2023-03-03T05:21:21.915Z,-3.83
2023-03-03T05:23:50.191Z,-3.74
2023-03-03T05:26:18.471Z,-3.67
2023-03-03T05:28:46.864Z,-3.60
2023-03-03T05:31:17.922Z,-3.51
2023-03-03T05:33:46.548Z,-3.42
2023-03-03T05:36:15.075Z,-3.36
2023-03-03T05:38:43.363Z,-3.29
2023-03-03T05:41:12.968Z,-3.23
2023-03-03T05:43:41.354Z,-3.14
2023-03-03T05:46:10.467Z,-3.04
2023-03-03T05:48:39.763Z,-2.94
2023-03-03T05:51:08.863Z,-2.86
2023-03-03T05:53:37.254Z,-2.74
2023-03-03T05:56:06.178Z,-2.64
2023-03-03T05:58:34.534Z,-2.61
2023-03-03T06:01:02.997Z,-2.60
2023-03-03T06:03:32.024Z,-2.61
2023-03-03T06:06:00.518Z,-2.61
2023-03-03T06:08:29.711Z,-2.62
2023-03-03T06:10:58.398Z,-2.65
2023-03-03T06:13:27.401Z,-2.66
2023-03-03T06:15:55.783Z,-2.64
2023-03-03T06:18:24.064Z,-2.62
2023-03-03T06:20:54.056Z,-2.58
2023-03-03T06:23:22.841Z,-2.55
2023-03-03T06:25:51.591Z,-2.50
2023-03-03T06:28:20.263Z,-2.46
2023-03-03T06:30:48.418Z,-2.42
2023-03-03T06:33:16.724Z,-2.37
2023-03-03T06:35:44.946Z,-2.32
2023-03-03T06:38:13.490Z,-2.27
2023-03-03T06:40:41.771Z,-2.21
2023-03-03T06:43:10.258Z,-2.14
2023-03-03T06:45:39.073Z,-2.08
2023-03-03T06:48:07.544Z,-1.99
2023-03-03T06:50:35.824Z,-1.90
2023-03-03T06:53:22.231Z,-1.82
2023-03-03T06:55:50.805Z,-1.74
2023-03-03T06:58:24.374Z,-1.66
2023-03-03T07:00:58.798Z,-1.60
2023-03-03T07:03:35.313Z,-1.50
2023-03-03T07:06:16.896Z,-1.39
2023-03-03T07:08:45.176Z,-1.26
2023-03-03T07:11:17.867Z,-1.14
2023-03-03T07:13:54.843Z,-1.00
2023-03-03T07:16:28.598Z,-0.88
2023-03-03T07:19:05.537Z,-0.75
2023-03-03T07:21:36.845Z,-0.64
2023-03-03T07:24:14.172Z,-0.54
2023-03-03T07:26:42.463Z,-0.43
2023-03-03T07:29:19.432Z,-0.32
2023-03-03T07:31:50.272Z,-0.22
2023-03-03T07:34:27.569Z,-0.08
2023-03-03T07:37:01.985Z,0.04
2023-03-03T07:39:40.589Z,0.14
2023-03-03T07:42:09.708Z,0.26
2023-03-03T07:44:38.820Z,0.39
2023-03-03T07:47:19.982Z,0.55
2023-03-03T07:49:50.620Z,0.70
2023-03-03T07:52:23.817Z,0.84
2023-03-03T07:54:53.042Z,0.97
2023-03-03T07:57:28.572Z,1.10
2023-03-03T08:00:28.742Z,1.24
2023-03-03T08:03:00.849Z,1.41
2023-03-03T08:05:29.406Z,1.52
2023-03-03T08:08:31.670Z,1.67
2023-03-03T08:11:01.914Z,1.87
2023-03-03T08:13:32.969Z,2.02
2023-03-03T08:16:10.225Z,2.15
2023-03-03T08:18:50.966Z,2.29
2023-03-03T08:21:26.766Z,2.44
2023-03-03T08:23:55.344Z,2.58
2023-03-03T08:26:25.672Z,2.71
2023-03-03T08:28:55.693Z,2.86
2023-03-03T08:31:39.643Z,3.02
2023-03-03T08:34:09.355Z,3.23
2023-03-03T08:36:38.044Z,3.40
2023-03-03T08:39:06.955Z,3.58
2023-03-03T08:41:35.328Z,3.75
2023-03-03T08:44:03.700Z,3.90
2023-03-03T08:46:32.777Z,4.08
2023-03-03T08:49:01.501Z,4.31
2023-03-03T08:51:29.879Z,4.55
2023-03-03T08:53:58.259Z,4.81
2023-03-03T08:56:26.653Z,5.08
2023-03-03T08:59:03.221Z,5.31
2023-03-03T09:01:33.142Z,5.53
2023-03-03T09:04:01.458Z,5.78
2023-03-03T09:06:29.701Z,6.03
2023-03-03T09:08:58.088Z,6.28
2023-03-03T09:11:29.256Z,6.59
2023-03-03T09:14:12.378Z,6.89
2023-03-03T09:16:48.414Z,7.21
2023-03-03T09:19:37.536Z,7.50
2023-03-03T09:22:24.416Z,7.85
2023-03-03T09:24:59.462Z,8.22
2023-03-03T09:27:29.846Z,8.63
2023-03-03T09:30:02.969Z,9.23
2023-03-03T09:32:39.565Z,10.14
2023-03-03T09:35:30.631Z,11.11
2023-03-03T09:37:58.995Z,11.93
2023-03-03T09:40:30.448Z,12.72
2023-03-03T09:43:05.078Z,13.46
2023-03-03T09:45:48.697Z,14.24
2023-03-03T09:48:44.828Z,14.94
2023-03-03T09:51:46.775Z,15.38
2023-03-03T09:54:27.564Z,15.72
2023-03-03T09:57:14.956Z,16.08
2023-03-03T09:59:46.108Z,16.52
2023-03-03T10:03:03.763Z,17.04
2023-03-03T10:05:59.428Z,17.71
2023-03-03T10:08:47.552Z,18.12
2023-03-03T10:11:24.739Z,18.39
2023-03-03T10:13:52.940Z,18.83
2023-03-03T10:17:10.230Z,19.28
2023-03-03T10:19:48.836Z,19.06
2023-03-03T10:22:29.087Z,19.36
2023-03-03T10:25:09.676Z,19.81
2023-03-03T10:28:03.114Z,20.18
2023-03-03T10:30:48.527Z,20.35
2023-03-03T10:33:45.133Z,20.49
2023-03-03T10:36:52.803Z,20.89
2023-03-03T10:39:40.213Z,20.89
2023-03-03T10:42:11.467Z,20.85
2023-03-03T10:45:04.643Z,21.10
2023-03-03T10:47:59.202Z,20.92
2023-03-03T10:50:32.037Z,20.91
2023-03-03T10:53:06.294Z,21.28
2023-03-03T10:55:39.669Z,21.74
2023-03-03T10:58:40.636Z,21.87
2023-03-03T11:01:32.501Z,22.08
2023-03-03T11:04:19.580Z,22.49
2023-03-03T11:06:50.909Z,22.96
2023-03-03T11:10:09.946Z,23.50
2023-03-03T11:12:49.685Z,23.84
2023-03-03T11:15:42.104Z,23.75
2023-03-03T11:18:29.027Z,23.65
2023-03-03T11:21:30.886Z,24.01
2023-03-03T11:24:02.257Z,24.38
2023-03-03T11:26:34.807Z,24.12
2023-03-03T11:29:15.076Z,24.02
2023-03-03T11:31:49.180Z,23.88
2023-03-03T11:34:39.261Z,23.78
2023-03-03T11:37:13.887Z,23.55
2023-03-03T11:39:44.437Z,22.89
2023-03-03T11:42:23.715Z,22.16
2023-03-03T11:45:09.228Z,21.79
2023-03-03T11:48:15.784Z,21.49
2023-03-03T11:50:53.854Z,21.14
2023-03-03T11:53:53.948Z,21.13
2023-03-03T11:56:28.114Z,21.09
2023-03-03T11:59:33.438Z,20.91
2023-03-03T12:02:26.617Z,20.95
2023-03-03T12:05:05.512Z,20.76
2023-03-03T12:08:11.195Z,20.47
2023-03-03T12:10:45.367Z,19.99
2023-03-03T12:13:24.288Z,19.54
2023-03-03T12:16:19.643Z,19.12
2023-03-03T12:18:50.736Z,19.01
2023-03-03T12:21:43.378Z,18.82
2023-03-03T12:24:11.552Z,18.95
2023-03-03T12:26:55.084Z,19.02
2023-03-03T12:29:51.369Z,19.27
2023-03-03T12:32:49.080Z,19.25
2023-03-03T12:35:29.134Z,19.30
2023-03-03T12:38:52.056Z,19.49
2023-03-03T12:41:43.650Z,19.73
2023-03-03T12:44:37.824Z,20.07
2023-03-03T12:47:12.043Z,20.52
2023-03-03T12:50:12.460Z,20.89
2023-03-03T12:52:49.948Z,21.17
2023-03-03T12:55:35.259Z,21.88
2023-03-03T12:58:39.119Z,22.41
2023-03-03T13:01:33.492Z,22.95
2023-03-03T13:04:21.746Z,23.22
2023-03-03T13:06:55.635Z,23.39
2023-03-03T13:10:01.989Z,23.63
2023-03-03T13:12:55.956Z,24.48
2023-03-03T13:15:55.809Z,25.26
2023-03-03T13:18:36.619Z,25.83
2023-03-03T13:21:08.690Z,26.35
2023-03-03T13:23:52.220Z,26.90
2023-03-03T13:26:31.694Z,27.43
2023-03-03T13:29:26.663Z,27.74
2023-03-03T13:31:59.694Z,27.99
2023-03-03T13:34:33.046Z,28.02
2023-03-03T13:37:26.184Z,28.26
2023-03-03T13:39:58.361Z,28.33
2023-03-03T13:42:29.813Z,28.24
2023-03-03T13:45:02.195Z,28.57
2023-03-03T13:47:54.301Z,28.77
2023-03-03T13:50:39.994Z,28.77
2023-03-03T13:53:20.462Z,28.73
2023-03-03T13:56:04.057Z,28.63
2023-03-03T13:59:05.883Z,28.23
2023-03-03T14:01:59.488Z,28.24
2023-03-03T14:04:53.350Z,28.33
2023-03-03T14:07:43.634Z,28.14
2023-03-03T14:10:26.457Z,28.24
2023-03-03T14:13:04.672Z,28.30
2023-03-03T14:15:46.248Z,28.36
2023-03-03T14:18:24.272Z,28.24
2023-03-03T14:20:55.705Z,27.91
2023-03-03T14:23:57.521Z,27.76
2023-03-03T14:26:26.045Z,27.81
2023-03-03T14:29:17.655Z,27.89
2023-03-03T14:31:46.359Z,27.96
2023-03-03T14:34:23.866Z,28.04
2023-03-03T14:36:57.753Z,28.00
2023-03-03T14:39:40.977Z,27.57
2023-03-03T14:42:34.128Z,27.38
2023-03-03T14:45:32.279Z,27.23
2023-03-03T14:48:12.546Z,27.16
2023-03-03T14:50:43.691Z,27.07
2023-03-03T14:53:14.431Z,26.78
2023-03-03T14:55:45.378Z,26.51
2023-03-03T14:58:31.076Z,26.03
2023-03-03T15:01:22.638Z,25.51
2023-03-03T15:04:10.697Z,25.03
2023-03-03T15:06:44.143Z,24.52
2023-03-03T15:09:30.796Z,23.88
2023-03-03T15:12:00.748Z,22.73
2023-03-03T15:14:38.539Z,21.75
2023-03-03T15:17:19.179Z,20.72
2023-03-03T15:19:47.721Z,19.77
2023-03-03T15:22:34.780Z,19.06
2023-03-03T15:25:20.645Z,18.24
2023-03-03T15:28:30.073Z,17.47
2023-03-03T15:31:13.051Z,16.77
2023-03-03T15:33:46.803Z,16.33
2023-03-03T15:36:23.597Z,15.98
2023-03-03T15:39:19.585Z,15.62
2023-03-03T15:41:59.876Z,15.24
2023-03-03T15:44:45.372Z,14.91
2023-03-03T15:47:39.696Z,14.59
2023-03-03T15:50:34.593Z,14.17
2023-03-03T15:53:05.631Z,13.83
2023-03-03T15:55:43.745Z,13.60
2023-03-03T15:58:51.234Z,13.36
2023-03-03T16:01:34.275Z,13.09
2023-03-03T16:04:48.220Z,12.75
2023-03-03T16:07:32.292Z,12.34
2023-03-03T16:10:12.967Z,12.04
2023-03-03T16:12:49.913Z,11.65
2023-03-03T16:15:22.226Z,11.35
2023-03-03T16:18:01.244Z,11.09
2023-03-03T16:20:29.517Z,10.86
2023-03-03T16:23:16.730Z,10.66
2023-03-03T16:25:57.405Z,10.41
2023-03-03T16:28:41.677Z,10.18
2023-03-03T16:31:29.394Z,9.96
2023-03-03T16:34:16.178Z,9.81
2023-03-03T16:37:19.356Z,9.63
2023-03-03T16:40:20.295Z,9.37
2023-03-03T16:43:11.598Z,9.11
2023-03-03T16:45:41.964Z,8.93
2023-03-03T16:48:28.860Z,8.80
2023-03-03T16:51:19.115Z,8.67
2023-03-03T16:54:16.481Z,8.53
2023-03-03T16:57:00.513Z,8.40
2023-03-03T16:59:46.661Z,8.29
2023-03-03T17:02:30.585Z,8.17
2023-03-03T17:05:15.082Z,8.09
2023-03-03T17:07:47.069Z,8.04
2023-03-03T17:10:33.604Z,7.98
2023-03-03T17:13:29.761Z,7.91
2023-03-03T17:16:46.014Z,7.85
2023-03-03T17:19:26.591Z,7.77
2023-03-03T17:22:10.329Z,7.73
2023-03-03T17:25:04.500Z,7.67
2023-03-03T17:27:39.031Z,7.57
2023-03-03T17:30:26.952Z,7.49
2023-03-03T17:33:21.945Z,7.43
2023-03-03T17:35:57.065Z,7.31
2023-03-03T17:38:50.541Z,7.19
2023-03-03T17:41:45.428Z,7.00
2023-03-03T17:44:30.397Z,6.82
2023-03-03T17:47:07.472Z,6.72
2023-03-03T17:49:52.957Z,6.63
2023-03-03T17:52:45.687Z,6.57
2023-03-03T17:55:23.185Z,6.47
2023-03-03T17:58:07.303Z,6.36
2023-03-03T18:00:43.902Z,6.25
2023-03-03T18:03:34.081Z,6.12
2023-03-03T18:06:11.572Z,6.05
2023-03-03T18:09:13.537Z,6.02
2023-03-03T18:12:07.812Z,6.04
2023-03-03T18:14:45.205Z,6.03
2023-03-03T18:17:37.542Z,6.04
2023-03-03T18:20:12.051Z,6.02
2023-03-03T18:22:47.033Z,6.04
2023-03-03T18:25:18.349Z,6.04
2023-03-03T18:28:07.503Z,6.02
2023-03-03T18:30:56.322Z,6.01
2023-03-03T18:33:57.683Z,6.01
2023-03-03T18:36:28.722Z,6.01
2023-03-03T18:38:59.356Z,6.01
2023-03-03T18:41:30.589Z,6.02
2023-03-03T18:44:23.147Z,6.04
2023-03-03T18:46:53.364Z,6.05
2023-03-03T18:49:47.353Z,5.96
2023-03-03T18:52:23.505Z,5.87
2023-03-03T18:55:21.971Z,5.72
2023-03-03T18:58:26.574Z,5.61
2023-03-03T19:01:00.124Z,5.53
2023-03-03T19:03:38.594Z,5.40
2023-03-03T19:06:10.556Z,5.21
2023-03-03T19:08:58.077Z,5.10
2023-03-03T19:11:48.260Z,4.96
2023-03-03T19:14:25.956Z,4.88
2023-03-03T19:16:55.773Z,4.77
2023-03-03T19:19:29.989Z,4.70
2023-03-03T19:22:23.120Z,4.66
2023-03-03T19:25:09.740Z,4.68
2023-03-03T19:27:47.029Z,4.71
2023-03-03T19:30:28.204Z,4.75
2023-03-03T19:33:02.430Z,4.76
2023-03-03T19:36:05.704Z,4.77
2023-03-03T19:38:46.290Z,4.80
2023-03-03T19:41:35.738Z,4.78
2023-03-03T19:44:19.461Z,4.75
2023-03-03T19:47:33.086Z,4.74
2023-03-03T19:50:22.547Z,4.66
2023-03-03T19:53:26.135Z,4.60
2023-03-03T19:55:54.620Z,4.55
2023-03-03T19:58:31.428Z,4.53
2023-03-03T20:01:24.662Z,4.49
2023-03-03T20:03:59.503Z,4.33
2023-03-03T20:06:36.973Z,4.31
2023-03-03T20:09:41.682Z,4.29
2023-03-03T20:12:12.837Z,4.21
2023-03-03T20:14:46.253Z,4.13
2023-03-03T20:17:26.791Z,4.13
2023-03-03T20:20:17.895Z,4.11
2023-03-03T20:23:00.701Z,4.08
2023-03-03T20:26:00.812Z,4.12
2023-03-03T20:29:02.555Z,4.09
2023-03-03T20:32:03.228Z,4.05
2023-03-03T20:34:52.133Z,4.05
2023-03-03T20:37:32.689Z,3.98
2023-03-03T20:40:27.862Z,3.91
2023-03-03T20:43:30.353Z,3.87
2023-03-03T20:46:20.023Z,3.86
2023-03-03T20:49:17.706Z,3.81
2023-03-03T20:51:57.014Z,3.67
2023-03-03T20:54:37.577Z,3.59
2023-03-03T20:57:34.068Z,3.61
2023-03-03T21:00:15.905Z,3.66
2023-03-03T21:03:04.295Z,3.65
2023-03-03T21:05:32.827Z,3.58
2023-03-03T21:08:03.812Z,3.55
2023-03-03T21:10:37.170Z,3.58
2023-03-03T21:13:34.196Z,3.58
2023-03-03T21:16:20.941Z,3.58
2023-03-03T21:19:00.032Z,3.61
2023-03-03T21:21:31.075Z,3.64
2023-03-03T21:23:59.528Z,3.67
2023-03-03T21:26:50.761Z,3.65
2023-03-03T21:29:32.261Z,3.60
2023-03-03T21:32:03.143Z,3.59
2023-03-03T21:34:37.412Z,3.58
2023-03-03T21:37:07.428Z,3.56
2023-03-03T21:39:40.726Z,3.47
2023-03-03T21:42:15.111Z,3.37
2023-03-03T21:44:45.003Z,3.31
2023-03-03T21:47:16.014Z,3.29
2023-03-03T21:49:46.583Z,3.28
2023-03-03T21:52:16.702Z,3.31
2023-03-03T21:54:47.605Z,3.35
2023-03-03T21:57:16.717Z,3.37
2023-03-03T21:59:51.143Z,3.37
2023-03-03T22:02:19.932Z,3.36
2023-03-03T22:04:48.423Z,3.38
2023-03-03T22:07:16.656Z,3.42
2023-03-03T22:09:45.793Z,3.45
2023-03-03T22:12:14.074Z,3.47
2023-03-03T22:14:42.357Z,3.48
2023-03-03T22:17:10.944Z,3.49
2023-03-03T22:19:39.238Z,3.49
2023-03-03T22:22:07.521Z,3.49
2023-03-03T22:24:35.793Z,3.46
2023-03-03T22:27:04.600Z,3.42
2023-03-03T22:29:32.772Z,3.37
2023-03-03T22:32:01.103Z,3.30
2023-03-03T22:34:30.118Z,3.23
2023-03-03T22:36:58.446Z,3.15
2023-03-03T22:39:27.638Z,3.06
2023-03-03T22:41:56.227Z,2.94
2023-03-03T22:44:24.515Z,2.84
2023-03-03T22:46:52.999Z,2.74
2023-03-03T22:49:21.802Z,2.62
2023-03-03T22:51:50.001Z,2.54
2023-03-03T22:54:18.156Z,2.48
2023-03-03T22:56:47.047Z,2.42
2023-03-03T22:59:15.950Z,2.37
2023-03-03T23:01:44.130Z,2.32
2023-03-03T23:04:12.336Z,2.27
2023-03-03T23:06:40.580Z,2.22
2023-03-03T23:09:08.771Z,2.18
2023-03-03T23:11:37.044Z,2.14
2023-03-03T23:14:05.290Z,2.08
2023-03-03T23:16:33.604Z,2.03
2023-03-03T23:19:01.890Z,1.97
2023-03-03T23:21:30.066Z,1.89
2023-03-03T23:23:58.360Z,1.80
2023-03-03T23:26:27.044Z,1.71
2023-03-03T23:28:55.217Z,1.64
2023-03-03T23:31:25.619Z,1.58
2023-03-03T23:33:54.035Z,1.53
2023-03-03T23:36:22.417Z,1.53
2023-03-03T23:38:50.902Z,1.55
2023-03-03T23:41:19.192Z,1.58
2023-03-03T23:43:48.083Z,1.55
2023-03-03T23:46:16.966Z,1.53
2023-03-03T23:48:45.478Z,1.51
2023-03-03T23:51:13.764Z,1.49
2023-03-03T23:53:42.030Z,1.48
2023-03-03T23:56:10.734Z,1.47
2023-03-03T23:58:39.010Z,1.43
